This is the latest recevied weather packets stored in our database for station/object ON4CDJ-13. If no packets are shown the sender has not sent any weather packets the latest 10 day(s).
| Time | Temp. | Humidity | Pressure | Rain* | Wind** | Luminosity | Snow |
|---|---|---|---|---|---|---|---|
| 1778271382 | 13.89° C | 64% | 1019.1 hPa | 0 mm | - | 0 W/m² | - |
| 1778270156 | 14.44° C | 63% | 1019 hPa | 0 mm | - | 0 W/m² | - |
| 1778268964 | 16.67° C | 55% | 1018.8 hPa | 0 mm | - | 23 W/m² | - |
| 1778267162 | 16.67° C | 55% | 1018.5 hPa | 0 mm | - | 23 W/m² | - |
| 1778266539 | 16.67° C | 55% | 1018.4 hPa | 0 mm | - | 23 W/m² | - |
| 1778265963 | 16.67° C | 55% | 1018.3 hPa | 0 mm | - | 23 W/m² | - |
| 1778262965 | 18.33° C | 47% | 1017.9 hPa | 0 mm | - | 61 W/m² | - |
| 1778260545 | 19.44° C | 45% | 1017.7 hPa | 0 mm | - | 133 W/m² | - |
| 1778254549 | 18.89° C | 45% | 1017.5 hPa | 0 mm | - | 156 W/m² | - |
| 1778252159 | 19.44° C | 43% | 1017.8 hPa | 0 mm | - | 176 W/m² | - |
| 1778250982 | 20° C | 43% | 1017.9 hPa | 0 mm | - | 558 W/m² | - |
| 1778250346 | 20° C | 42% | 1017.9 hPa | 0 mm | - | 347 W/m² | - |
| 1778243724 | 18.89° C | 42% | 1018.2 hPa | 0 mm | - | 335 W/m² | - |
| 1778242556 | 18.89° C | 43% | 1018.3 hPa | 0 mm | - | 270 W/m² | - |
| 1778235331 | 17.78° C | 54% | 1018.8 hPa | 0 mm | - | 517 W/m² | - |
| 1778232967 | 17.22° C | 55% | 1018.9 hPa | 0 mm | - | 403 W/m² | - |
| 1778228773 | 15.56° C | 65% | 1018.8 hPa | 0 mm | - | 262 W/m² | - |
| 1778223964 | 13.33° C | 77% | 1018.5 hPa | 0 mm | - | 145 W/m² | - |
| 1778222767 | 12.22° C | 81% | 1018.3 hPa | 0 mm | - | 112 W/m² | - |
| 1778217971 | 10.56° C | 90% | 1017.9 hPa | 0 mm | - | 24 W/m² | - |
| 1778216179 | 10° C | 92% | 1017.8 hPa | 0 mm | - | 12 W/m² | - |
| 1778214934 | 10° C | 91% | 1017.8 hPa | 0 mm | - | 6 W/m² | - |
| 1778214388 | 10° C | 91% | 1017.8 hPa | 0 mm | - | 4 W/m² | - |
| 1778211967 | 10° C | 90% | 1017.7 hPa | 0 mm | - | 0 W/m² | - |
| 1778211354 | 10° C | 90% | 1017.8 hPa | 0 mm | - | 0 W/m² | - |
* Rain latest hour (hover to see other rain measurements)
** Current wind speed in m/s (hover to see current wind gust speed)